Hlavní strana
METAR-TAF:

METAR-TAF

Letiště :

Nassau, Bahamy

zeměpisná šířka: 25-03N, zeměpisná délka: 077-28W, výška: 3 m

Aktuální stav počasí

Zpráva byla vytvořena před 18 minutami, v 16:00 UTC
Jižní vítr 12 kt
Teplota 30°C
Vlhkost vzduchu 70%
Tlak 1019 hPa
Viditelnost 10 km a více
Polojasno ve výšce 2200 ft

METAR: MYNN 181600Z 17012KT 9999 SCT022 30/24 A3010

Čas: 12:18 (16:18 UTC)

Předpověď počasí

Zpráva byla vytvořena před 6 hodinami a 48 minutami, v 09:30 UTC
Předpověď platná od 18 v 12 UTC do 19 v 12 UTC
Jihojihovýchodní vítr 7 kt
Viditelnost 10 km a více
Skoro jasno ve výšce 2000 ft
Změna
od 18 v 16 UTC do 18 v 18 UTC
Skoro jasno ve výšce 1800 ft, Cumulonimbus.
Polojasno ve výšce 2000 ft

TAF: MYNN 180930Z 1812/1912 15007KT 9999 FEW020 BECMG 1816/1818 FEW018CB SCT020

Stav a předpovědi počasí z více než 4 000 letišť (zprávy METAR a TAF).

Červené a žluté tečky na mapě představují dostupné meteorologické stanice.

Když kurzor umístíte na tečku, zobrazí se název stanice.

Pak kliknutím zobrazíte stav a předpověď počasí.

Chcete-li změnit mapu, kliknutím na zelené tlačítko se znaménkem +mapu přiblížíte, kliknutím na zelené tlačítko se znaménkem – mapu oddálíte a kliknutím na zelené šipky přejdete na sousední mapy.


METAR-TAF: